createdAt,value
2023-02-22T00:01:08.309Z,8.65
2023-02-22T00:03:36.871Z,8.65
2023-02-22T00:06:06.496Z,8.63
2023-02-22T00:08:37.135Z,8.62
2023-02-22T00:11:08.962Z,8.61
2023-02-22T00:13:38.662Z,8.60
2023-02-22T00:16:07.500Z,8.59
2023-02-22T00:18:35.632Z,8.59
2023-02-22T00:21:04.127Z,8.60
2023-02-22T00:23:32.191Z,8.61
2023-02-22T00:26:01.361Z,8.60
2023-02-22T00:28:30.893Z,8.60
2023-02-22T00:31:00.108Z,8.60
2023-02-22T00:33:28.871Z,8.61
2023-02-22T00:35:56.816Z,8.61
2023-02-22T00:38:25.441Z,8.62
2023-02-22T00:40:53.674Z,8.62
2023-02-22T00:43:22.054Z,8.62
2023-02-22T00:45:50.275Z,8.61
2023-02-22T00:48:19.721Z,8.60
2023-02-22T00:50:48.836Z,8.62
2023-02-22T00:53:16.896Z,8.66
2023-02-22T00:55:45.183Z,8.68
2023-02-22T00:58:13.557Z,8.71
2023-02-22T01:00:43.080Z,8.72
2023-02-22T01:03:13.586Z,8.68
2023-02-22T01:05:42.191Z,8.62
2023-02-22T01:08:13.147Z,8.53
2023-02-22T01:10:41.301Z,8.48
2023-02-22T01:13:12.541Z,8.42
2023-02-22T01:15:43.481Z,8.35
2023-02-22T01:18:12.987Z,8.31
2023-02-22T01:20:41.156Z,8.26
2023-02-22T01:23:10.699Z,8.21
2023-02-22T01:25:38.907Z,8.18
2023-02-22T01:28:09.527Z,8.12
2023-02-22T01:30:37.721Z,8.09
2023-02-22T01:33:07.775Z,8.06
2023-02-22T01:35:41.012Z,8.02
2023-02-22T01:38:10.443Z,7.99
2023-02-22T01:40:44.149Z,7.96
2023-02-22T01:43:27.305Z,7.93
2023-02-22T01:46:01.425Z,7.91
2023-02-22T01:48:36.087Z,7.89
2023-02-22T01:51:11.165Z,7.86
2023-02-22T01:54:01.459Z,7.83
2023-02-22T01:56:32.898Z,7.80
2023-02-22T01:59:12.263Z,7.77
2023-02-22T02:01:44.962Z,7.73
2023-02-22T02:04:19.593Z,7.70
2023-02-22T02:06:48.179Z,7.69
2023-02-22T02:09:25.268Z,7.70
2023-02-22T02:11:54.050Z,7.71
2023-02-22T02:14:22.638Z,7.72
2023-02-22T02:16:53.532Z,7.74
2023-02-22T02:19:24.600Z,7.77
2023-02-22T02:22:08.026Z,7.78
2023-02-22T02:24:57.728Z,7.81
2023-02-22T02:27:55.417Z,7.83
2023-02-22T02:30:26.333Z,7.84
2023-02-22T02:33:16.455Z,7.86
2023-02-22T02:36:08.068Z,7.89
2023-02-22T02:38:45.185Z,7.93
2023-02-22T02:41:27.208Z,7.99
2023-02-22T02:44:13.908Z,8.04
2023-02-22T02:46:48.775Z,8.10
2023-02-22T02:49:22.510Z,8.11
2023-02-22T02:51:55.229Z,8.09
2023-02-22T02:54:24.541Z,8.05
2023-02-22T02:56:53.680Z,8.06
2023-02-22T02:59:28.051Z,8.05
2023-02-22T03:02:23.555Z,8.03
2023-02-22T03:05:00.710Z,7.96
2023-02-22T03:07:57.113Z,7.89
2023-02-22T03:11:02.010Z,7.85
2023-02-22T03:13:39.200Z,7.81
2023-02-22T03:16:10.278Z,7.80
2023-02-22T03:18:51.977Z,7.78
2023-02-22T03:21:36.242Z,7.75
2023-02-22T03:24:17.023Z,7.72
2023-02-22T03:27:03.028Z,7.71
2023-02-22T03:29:37.508Z,7.69
2023-02-22T03:32:09.970Z,7.66
2023-02-22T03:34:43.070Z,7.64
2023-02-22T03:37:29.093Z,7.61
2023-02-22T03:40:00.913Z,7.58
2023-02-22T03:42:35.856Z,7.55
2023-02-22T03:45:10.142Z,7.52
2023-02-22T03:47:46.185Z,7.49
2023-02-22T03:50:19.075Z,7.43
2023-02-22T03:52:47.689Z,7.38
2023-02-22T03:55:23.909Z,7.34
2023-02-22T03:57:57.986Z,7.32
2023-02-22T04:00:30.250Z,7.30
2023-02-22T04:02:58.989Z,7.28
2023-02-22T04:05:27.105Z,7.25
2023-02-22T04:07:58.150Z,7.25
2023-02-22T04:10:27.796Z,7.25
2023-02-22T04:12:55.846Z,7.25
2023-02-22T04:15:24.934Z,7.25
2023-02-22T04:17:57.923Z,7.25
2023-02-22T04:20:26.330Z,7.27
2023-02-22T04:23:05.382Z,7.29
2023-02-22T04:25:33.716Z,7.28
2023-02-22T04:28:12.213Z,7.27
2023-02-22T04:30:54.306Z,7.28
2023-02-22T04:33:23.925Z,7.35
2023-02-22T04:35:52.013Z,7.35
2023-02-22T04:38:20.588Z,7.35
2023-02-22T04:40:49.306Z,7.35
2023-02-22T04:43:17.966Z,7.33
2023-02-22T04:45:46.244Z,7.31
2023-02-22T04:48:14.619Z,7.29
2023-02-22T04:50:42.889Z,7.22
2023-02-22T04:53:11.221Z,7.16
2023-02-22T04:55:39.755Z,7.13
2023-02-22T04:58:09.486Z,7.14
2023-02-22T05:00:38.552Z,7.12
2023-02-22T05:03:07.757Z,7.11
2023-02-22T05:05:35.652Z,7.10
2023-02-22T05:08:03.670Z,7.06
2023-02-22T05:10:31.936Z,7.03
2023-02-22T05:13:00.127Z,6.99
2023-02-22T05:15:28.180Z,6.97
2023-02-22T05:17:56.283Z,6.94
2023-02-22T05:20:27.822Z,6.93
2023-02-22T05:22:57.645Z,6.91
2023-02-22T05:25:27.123Z,6.89
2023-02-22T05:27:57.963Z,6.88
2023-02-22T05:30:30.671Z,6.88
2023-02-22T05:32:59.523Z,6.88
2023-02-22T05:35:29.161Z,6.89
2023-02-22T05:37:57.829Z,6.91
2023-02-22T05:40:26.942Z,6.93
2023-02-22T05:42:57.153Z,6.95
2023-02-22T05:45:27.495Z,6.96
2023-02-22T05:47:55.868Z,6.99
2023-02-22T05:50:24.963Z,7.05
2023-02-22T05:52:53.941Z,7.09
2023-02-22T05:55:23.954Z,7.12
2023-02-22T05:57:52.759Z,7.14
2023-02-22T06:00:31.259Z,7.17
2023-02-22T06:03:02.719Z,7.18
2023-02-22T06:05:31.088Z,7.22
2023-02-22T06:08:01.616Z,7.38
2023-02-22T06:10:30.399Z,7.42
2023-02-22T06:13:00.014Z,7.38
2023-02-22T06:15:29.642Z,7.35
2023-02-22T06:17:58.956Z,7.34
2023-02-22T06:20:29.408Z,7.41
2023-02-22T06:22:59.191Z,7.62
2023-02-22T06:25:33.046Z,7.89
2023-02-22T06:28:01.353Z,8.04
2023-02-22T06:30:30.586Z,8.02
2023-02-22T06:32:58.733Z,7.94
2023-02-22T06:35:26.865Z,7.86
2023-02-22T06:37:54.956Z,7.80
2023-02-22T06:40:23.236Z,7.74
2023-02-22T06:42:51.610Z,7.68
2023-02-22T06:45:19.868Z,7.65
2023-02-22T06:47:49.761Z,7.63
2023-02-22T06:50:23.281Z,7.59
2023-02-22T06:52:52.072Z,7.57
2023-02-22T06:55:23.462Z,7.56
2023-02-22T06:57:52.413Z,7.55
2023-02-22T07:00:22.952Z,7.53
2023-02-22T07:02:51.900Z,7.52
2023-02-22T07:05:22.459Z,7.51
2023-02-22T07:07:55.392Z,7.51
2023-02-22T07:10:27.838Z,7.52
2023-02-22T07:12:56.511Z,7.51
2023-02-22T07:15:26.437Z,7.52
2023-02-22T07:17:54.358Z,7.55
2023-02-22T07:20:28.090Z,7.57
2023-02-22T07:22:56.500Z,7.59
2023-02-22T07:25:24.941Z,7.62
2023-02-22T07:27:53.234Z,7.70
2023-02-22T07:30:26.586Z,7.74
2023-02-22T07:32:55.494Z,7.76
2023-02-22T07:35:32.461Z,7.83
2023-02-22T07:38:00.575Z,7.96
2023-02-22T07:40:29.260Z,8.15
2023-02-22T07:42:57.345Z,8.34
2023-02-22T07:45:28.640Z,8.47
2023-02-22T07:47:57.781Z,8.56
2023-02-22T07:50:28.222Z,8.65
2023-02-22T07:52:58.615Z,8.72
2023-02-22T07:55:29.160Z,8.70
2023-02-22T07:58:00.402Z,8.72
2023-02-22T08:00:34.019Z,8.73
2023-02-22T08:03:05.034Z,8.74
2023-02-22T08:05:36.314Z,8.73
2023-02-22T08:08:06.205Z,8.75
2023-02-22T08:10:36.001Z,8.72
2023-02-22T08:13:05.934Z,8.75
2023-02-22T08:15:39.127Z,8.94
2023-02-22T08:18:18.484Z,9.16
2023-02-22T08:20:48.761Z,9.29
2023-02-22T08:23:18.181Z,9.48
2023-02-22T08:25:46.354Z,9.78
2023-02-22T08:28:18.305Z,10.11
2023-02-22T08:30:46.761Z,10.55
2023-02-22T08:33:19.546Z,10.76
2023-02-22T08:35:49.861Z,10.86
2023-02-22T08:38:29.864Z,11.05
2023-02-22T08:40:57.936Z,11.31
2023-02-22T08:43:26.372Z,11.56
2023-02-22T08:45:57.298Z,11.95
2023-02-22T08:48:25.738Z,12.41
2023-02-22T08:50:54.102Z,12.64
2023-02-22T08:53:22.148Z,12.79
2023-02-22T08:55:50.254Z,13.22
2023-02-22T08:58:18.346Z,13.91
2023-02-22T09:00:46.556Z,14.71
2023-02-22T09:03:15.486Z,14.89
2023-02-22T09:05:44.827Z,14.78
2023-02-22T09:08:13.128Z,15.01
2023-02-22T09:10:41.203Z,15.24
2023-02-22T09:13:09.376Z,15.30
2023-02-22T09:15:39.828Z,15.30
2023-02-22T09:18:10.085Z,15.22
2023-02-22T09:20:38.113Z,15.14
2023-02-22T09:23:09.932Z,15.68
2023-02-22T09:25:41.102Z,16.18
2023-02-22T09:28:10.452Z,16.28
2023-02-22T09:30:39.038Z,16.30
2023-02-22T09:33:12.782Z,16.78
2023-02-22T09:35:42.938Z,17.34
2023-02-22T09:38:11.792Z,17.76
2023-02-22T09:40:47.866Z,18.01
2023-02-22T09:43:33.955Z,17.80
2023-02-22T09:46:28.014Z,18.13
2023-02-22T09:49:18.093Z,18.87
2023-02-22T09:52:02.776Z,19.74
2023-02-22T09:54:41.388Z,20.02
2023-02-22T09:57:18.182Z,20.58
2023-02-22T10:00:13.824Z,20.38
2023-02-22T10:03:15.424Z,20.26
2023-02-22T10:05:56.979Z,20.60
2023-02-22T10:08:31.262Z,20.85
2023-02-22T10:11:24.385Z,21.05
2023-02-22T10:14:11.189Z,20.99
2023-02-22T10:16:47.917Z,20.76
2023-02-22T10:19:29.696Z,20.69
2023-02-22T10:22:00.332Z,21.05
2023-02-22T10:25:09.801Z,21.53
2023-02-22T10:27:42.397Z,21.79
2023-02-22T10:30:27.877Z,21.71
2023-02-22T10:33:05.479Z,21.96
2023-02-22T10:35:37.587Z,22.42
2023-02-22T10:38:20.430Z,22.87
2023-02-22T10:40:56.671Z,22.93
2023-02-22T10:43:25.893Z,22.36
2023-02-22T10:45:58.096Z,22.17
2023-02-22T10:48:29.236Z,22.57
2023-02-22T10:51:03.800Z,22.40
2023-02-22T10:53:33.976Z,22.33
2023-02-22T10:56:09.767Z,22.30
2023-02-22T10:58:49.241Z,21.91
2023-02-22T11:01:41.064Z,21.24
2023-02-22T11:04:13.466Z,20.99
2023-02-22T11:06:45.660Z,20.68
2023-02-22T11:09:22.551Z,20.24
2023-02-22T11:12:09.568Z,20.06
2023-02-22T11:14:39.215Z,20.50
2023-02-22T11:17:10.830Z,20.70
2023-02-22T11:19:47.237Z,20.56
2023-02-22T11:22:23.566Z,20.57
2023-02-22T11:24:57.415Z,20.68
2023-02-22T11:27:34.013Z,20.69
2023-02-22T11:30:27.035Z,20.73
2023-02-22T11:33:03.629Z,20.48
2023-02-22T11:35:39.128Z,20.38
2023-02-22T11:38:31.704Z,20.40
2023-02-22T11:41:05.991Z,20.55
2023-02-22T11:43:34.466Z,20.50
2023-02-22T11:46:08.372Z,20.55
2023-02-22T11:48:39.620Z,20.68
2023-02-22T11:51:26.938Z,20.74
2023-02-22T11:54:31.413Z,20.64
2023-02-22T11:57:11.756Z,20.07
2023-02-22T11:59:55.980Z,19.54
2023-02-22T12:02:56.582Z,19.60
2023-02-22T12:05:44.001Z,19.34
2023-02-22T12:08:26.480Z,19.16
2023-02-22T12:11:20.099Z,19.08
2023-02-22T12:14:26.201Z,19.07
2023-02-22T12:17:14.041Z,18.52
2023-02-22T12:19:49.188Z,18.34
2023-02-22T12:22:29.619Z,18.38
2023-02-22T12:25:09.342Z,18.39
2023-02-22T12:27:59.196Z,18.38
2023-02-22T12:30:31.195Z,18.45
2023-02-22T12:33:05.385Z,18.05
2023-02-22T12:35:42.928Z,17.81
2023-02-22T12:38:38.257Z,17.88
2023-02-22T12:41:27.694Z,18.12
2023-02-22T12:44:17.501Z,18.32
2023-02-22T12:46:55.316Z,18.30
2023-02-22T12:49:51.838Z,18.10
2023-02-22T12:52:38.742Z,17.91
2023-02-22T12:55:16.817Z,17.52
2023-02-22T12:57:54.653Z,17.45
2023-02-22T13:00:39.177Z,17.45
2023-02-22T13:03:25.642Z,17.23
2023-02-22T13:06:22.552Z,16.52
2023-02-22T13:08:56.567Z,15.75
2023-02-22T13:11:54.661Z,15.35
2023-02-22T13:14:35.505Z,15.02
2023-02-22T13:17:09.103Z,14.68
2023-02-22T13:19:40.247Z,14.38
2023-02-22T13:22:14.265Z,14.08
2023-02-22T13:25:03.394Z,13.78
2023-02-22T13:27:42.373Z,13.70
2023-02-22T13:30:27.233Z,13.53
2023-02-22T13:32:58.762Z,13.32
2023-02-22T13:35:35.829Z,13.17
2023-02-22T13:38:45.080Z,13.14
2023-02-22T13:41:16.078Z,13.00
2023-02-22T13:43:47.182Z,12.71
2023-02-22T13:46:37.359Z,12.50
2023-02-22T13:49:14.612Z,12.32
2023-02-22T13:51:50.801Z,12.24
2023-02-22T13:54:51.214Z,12.19
2023-02-22T13:57:36.499Z,12.04
2023-02-22T14:00:21.162Z,11.93
2023-02-22T14:03:01.932Z,11.89
2023-02-22T14:05:41.469Z,11.89
2023-02-22T14:08:36.776Z,11.85
2023-02-22T14:11:06.815Z,11.79
2023-02-22T14:13:55.250Z,11.77
2023-02-22T14:16:28.715Z,11.76
2023-02-22T14:19:13.596Z,11.78
2023-02-22T14:22:02.308Z,11.83
2023-02-22T14:24:51.108Z,11.83
2023-02-22T14:27:19.383Z,11.76
2023-02-22T14:29:57.813Z,11.74
2023-02-22T14:32:34.626Z,11.64
2023-02-22T14:35:25.436Z,11.52
2023-02-22T14:37:58.122Z,11.43
2023-02-22T14:40:28.997Z,11.36
2023-02-22T14:43:12.220Z,11.19
2023-02-22T14:45:47.892Z,11.02
2023-02-22T14:48:28.666Z,10.87
2023-02-22T14:51:19.148Z,10.76
2023-02-22T14:54:01.338Z,10.66
2023-02-22T14:56:49.368Z,10.56
2023-02-22T14:59:25.214Z,10.47
2023-02-22T15:02:12.930Z,10.39
2023-02-22T15:04:44.143Z,10.31
2023-02-22T15:07:32.422Z,10.24
2023-02-22T15:10:24.016Z,10.17
2023-02-22T15:13:10.595Z,10.08
2023-02-22T15:15:49.168Z,10.06
2023-02-22T15:18:30.196Z,10.00
2023-02-22T15:21:06.544Z,9.90
2023-02-22T15:23:45.561Z,9.83
2023-02-22T15:26:22.975Z,9.71
2023-02-22T15:29:00.919Z,9.65
2023-02-22T15:31:35.330Z,9.59
2023-02-22T15:34:15.736Z,9.53
2023-02-22T15:36:46.061Z,9.49
2023-02-22T15:39:25.616Z,9.45
2023-02-22T15:42:19.344Z,9.41
2023-02-22T15:44:50.125Z,9.36
2023-02-22T15:47:24.106Z,9.32
2023-02-22T15:50:37.547Z,9.28
2023-02-22T15:53:09.500Z,9.23
2023-02-22T15:55:40.346Z,9.18
2023-02-22T15:58:19.372Z,9.14
2023-02-22T16:00:51.127Z,9.09
2023-02-22T16:03:23.992Z,9.03
2023-02-22T16:05:56.728Z,8.97
2023-02-22T16:08:54.120Z,8.92
2023-02-22T16:11:43.309Z,8.83
2023-02-22T16:14:36.631Z,8.74
2023-02-22T16:17:35.817Z,8.67
2023-02-22T16:20:17.895Z,8.59
2023-02-22T16:22:50.509Z,8.54
2023-02-22T16:25:18.652Z,8.46
2023-02-22T16:27:49.655Z,8.37
2023-02-22T16:30:24.076Z,8.29
2023-02-22T16:32:55.550Z,8.24
2023-02-22T16:35:32.710Z,8.20
2023-02-22T16:38:04.237Z,8.16
2023-02-22T16:40:39.819Z,8.13
2023-02-22T16:43:13.011Z,8.08
2023-02-22T16:45:42.578Z,8.04
2023-02-22T16:48:27.425Z,8.00
2023-02-22T16:50:59.223Z,7.94
2023-02-22T16:53:31.098Z,7.89
2023-02-22T16:56:05.505Z,7.81
2023-02-22T16:58:38.892Z,7.69
2023-02-22T17:01:07.694Z,7.53
2023-02-22T17:03:35.882Z,7.36
2023-02-22T17:06:05.266Z,7.14
2023-02-22T17:08:33.432Z,6.88
2023-02-22T17:11:01.793Z,6.58
2023-02-22T17:13:30.229Z,6.28
2023-02-22T17:15:58.441Z,6.04
2023-02-22T17:18:28.829Z,5.86
2023-02-22T17:20:57.092Z,5.64
2023-02-22T17:23:26.785Z,5.47
2023-02-22T17:26:03.595Z,5.37
2023-02-22T17:28:32.198Z,5.29
2023-02-22T17:31:01.940Z,5.21
2023-02-22T17:33:34.637Z,5.11
2023-02-22T17:36:03.923Z,5.01
2023-02-22T17:38:32.450Z,4.92
2023-02-22T17:41:01.633Z,4.89
2023-02-22T17:43:30.105Z,4.85
2023-02-22T17:45:58.254Z,4.84
2023-02-22T17:48:26.618Z,4.84
2023-02-22T17:50:54.946Z,4.84
2023-02-22T17:53:25.091Z,4.82
2023-02-22T17:55:53.311Z,4.83
2023-02-22T17:58:22.845Z,4.83
2023-02-22T18:00:51.955Z,4.83
2023-02-22T18:03:26.032Z,4.80
2023-02-22T18:05:57.773Z,4.73
2023-02-22T18:08:29.049Z,4.66
2023-02-22T18:10:57.078Z,4.61
2023-02-22T18:13:27.781Z,4.56
2023-02-22T18:16:00.227Z,4.52
2023-02-22T18:18:28.732Z,4.46
2023-02-22T18:21:00.121Z,4.41
2023-02-22T18:23:30.786Z,4.35
2023-02-22T18:26:10.817Z,4.26
2023-02-22T18:28:40.617Z,4.17
2023-02-22T18:31:10.589Z,4.07
2023-02-22T18:33:38.813Z,4.00
2023-02-22T18:36:07.791Z,3.95
2023-02-22T18:38:35.901Z,3.87
2023-02-22T18:41:05.986Z,3.81
2023-02-22T18:43:35.775Z,3.76
2023-02-22T18:46:09.327Z,3.69
2023-02-22T18:48:38.807Z,3.61
2023-02-22T18:51:10.389Z,3.53
2023-02-22T18:53:41.477Z,3.47
2023-02-22T18:56:16.415Z,3.40
2023-02-22T18:58:45.667Z,3.34
2023-02-22T19:01:18.536Z,3.27
2023-02-22T19:03:49.353Z,3.18
2023-02-22T19:06:19.484Z,3.08
2023-02-22T19:08:48.814Z,3.01
2023-02-22T19:11:23.224Z,2.96
2023-02-22T19:13:56.269Z,2.91
2023-02-22T19:16:26.542Z,2.85
2023-02-22T19:18:58.260Z,2.80
2023-02-22T19:21:28.484Z,2.75
2023-02-22T19:24:02.031Z,2.71
2023-02-22T19:26:30.494Z,2.67
2023-02-22T19:29:05.030Z,2.63
2023-02-22T19:31:34.108Z,2.57
2023-02-22T19:34:05.412Z,2.53
2023-02-22T19:36:33.572Z,2.48
2023-02-22T19:39:02.252Z,2.46
2023-02-22T19:41:31.475Z,2.45
2023-02-22T19:44:01.167Z,2.45
2023-02-22T19:46:29.207Z,2.45
2023-02-22T19:48:58.745Z,2.46
2023-02-22T19:51:28.843Z,2.49
2023-02-22T19:54:05.426Z,2.51
2023-02-22T19:56:35.679Z,2.52
2023-02-22T19:59:13.553Z,2.54
2023-02-22T20:01:44.612Z,2.59
2023-02-22T20:04:18.564Z,2.60
2023-02-22T20:06:57.743Z,2.56
2023-02-22T20:09:30.086Z,2.55
2023-02-22T20:11:58.591Z,2.58
2023-02-22T20:14:30.744Z,2.62
2023-02-22T20:16:58.914Z,2.58
2023-02-22T20:19:28.525Z,2.50
2023-02-22T20:21:56.774Z,2.41
2023-02-22T20:24:25.391Z,2.38
2023-02-22T20:26:55.977Z,2.36
2023-02-22T20:29:29.588Z,2.30
2023-02-22T20:32:01.014Z,2.11
2023-02-22T20:34:33.727Z,1.93
2023-02-22T20:37:02.679Z,1.83
2023-02-22T20:39:31.215Z,1.72
2023-02-22T20:42:00.665Z,1.65
2023-02-22T20:44:29.074Z,1.59
2023-02-22T20:46:57.378Z,1.49
2023-02-22T20:49:27.470Z,1.42
2023-02-22T20:51:55.565Z,1.40
2023-02-22T20:54:23.864Z,1.39
2023-02-22T20:56:53.118Z,1.38
2023-02-22T20:59:22.031Z,1.37
2023-02-22T21:01:53.155Z,1.36
2023-02-22T21:04:24.274Z,1.34
2023-02-22T21:06:52.789Z,1.32
2023-02-22T21:09:23.039Z,1.27
2023-02-22T21:11:51.108Z,1.20
2023-02-22T21:14:20.260Z,1.13
2023-02-22T21:16:50.110Z,1.10
2023-02-22T21:19:25.928Z,1.07
2023-02-22T21:21:59.840Z,1.03
2023-02-22T21:24:29.248Z,0.97
2023-02-22T21:27:00.711Z,0.94
2023-02-22T21:29:29.398Z,0.96
2023-02-22T21:31:57.959Z,0.93
2023-02-22T21:34:26.461Z,0.94
2023-02-22T21:36:54.545Z,0.95
2023-02-22T21:39:28.354Z,0.97
2023-02-22T21:42:00.828Z,1.01
2023-02-22T21:44:29.572Z,1.02
2023-02-22T21:46:57.885Z,1.07
2023-02-22T21:49:25.943Z,0.99
2023-02-22T21:51:53.986Z,0.92
2023-02-22T21:54:23.118Z,0.88
2023-02-22T21:56:51.555Z,0.86
2023-02-22T21:59:23.533Z,0.83
2023-02-22T22:01:56.062Z,0.84
2023-02-22T22:04:29.851Z,0.85
2023-02-22T22:06:59.654Z,0.82
2023-02-22T22:09:34.557Z,0.73
2023-02-22T22:12:05.993Z,0.64
2023-02-22T22:14:35.331Z,0.52
2023-02-22T22:17:07.162Z,0.44
2023-02-22T22:19:40.567Z,0.43
2023-02-22T22:22:09.665Z,0.51
2023-02-22T22:24:38.260Z,0.58
2023-02-22T22:27:09.763Z,0.57
2023-02-22T22:29:37.978Z,0.56
2023-02-22T22:32:06.816Z,0.50
2023-02-22T22:34:37.950Z,0.45
2023-02-22T22:37:06.173Z,0.40
2023-02-22T22:39:34.229Z,0.33
2023-02-22T22:42:02.420Z,0.20
2023-02-22T22:44:33.052Z,0.08
2023-02-22T22:47:01.325Z,0.02
2023-02-22T22:49:31.552Z,-0.07
2023-02-22T22:52:00.036Z,-0.15
2023-02-22T22:54:29.038Z,-0.21
2023-02-22T22:56:57.502Z,-0.30
2023-02-22T22:59:25.669Z,-0.41
2023-02-22T23:01:56.627Z,-0.52
2023-02-22T23:04:25.596Z,-0.58
2023-02-22T23:06:55.452Z,-0.63
2023-02-22T23:09:30.487Z,-0.66
2023-02-22T23:12:10.179Z,-0.65
2023-02-22T23:14:45.577Z,-0.63
2023-02-22T23:17:26.901Z,-0.58
2023-02-22T23:19:55.229Z,-0.50
2023-02-22T23:22:23.909Z,-0.43
2023-02-22T23:24:52.055Z,-0.41
2023-02-22T23:27:20.338Z,-0.37
2023-02-22T23:29:49.720Z,-0.32
2023-02-22T23:32:17.777Z,-0.22
2023-02-22T23:34:49.841Z,-0.18
2023-02-22T23:37:20.709Z,-0.17
2023-02-22T23:39:51.015Z,-0.18
2023-02-22T23:42:19.313Z,-0.18
2023-02-22T23:44:48.323Z,-0.15
2023-02-22T23:47:16.469Z,-0.16
2023-02-22T23:49:49.469Z,-0.19
2023-02-22T23:52:24.330Z,-0.33
2023-02-22T23:54:54.242Z,-0.44
2023-02-22T23:57:24.216Z,-0.48
2023-02-22T23:59:52.499Z,-0.50
